createdAt,value
2023-01-17T00:02:33.169Z,2.065735
2023-01-17T00:05:58.489Z,2.13623
2023-01-17T00:09:23.779Z,2.116089
2023-01-17T00:12:49.081Z,2.156372
2023-01-17T00:16:14.407Z,2.166443
2023-01-17T00:19:39.692Z,2.166443
2023-01-17T00:23:04.984Z,2.166443
2023-01-17T00:26:30.300Z,2.156372
2023-01-17T00:29:55.680Z,2.095947
2023-01-17T00:33:20.980Z,2.045593
2023-01-17T00:36:46.301Z,2.015381
2023-01-17T00:40:11.594Z,2.025452
2023-01-17T00:43:36.873Z,2.085876
2023-01-17T00:47:02.209Z,2.085876
2023-01-17T00:50:27.490Z,2.095947
2023-01-17T00:53:52.741Z,2.085876
2023-01-17T00:57:18.019Z,2.055664
2023-01-17T01:00:43.271Z,2.015381
2023-01-17T01:04:08.584Z,2.055664
2023-01-17T01:07:33.836Z,2.025452
2023-01-17T01:10:59.168Z,2.025452
2023-01-17T01:14:24.490Z,2.025452
2023-01-17T01:17:49.723Z,1.985168
2023-01-17T01:21:15.069Z,2.045593
2023-01-17T01:24:40.328Z,2.025452
2023-01-17T01:28:05.618Z,2.055664
2023-01-17T01:31:31.647Z,2.055664
2023-01-17T01:34:56.897Z,2.065735
2023-01-17T01:38:22.231Z,2.055664
2023-01-17T01:41:47.475Z,2.015381
2023-01-17T01:45:12.767Z,1.985168
2023-01-17T01:48:38.053Z,2.055664
2023-01-17T01:52:03.358Z,2.015381
2023-01-17T01:55:28.641Z,1.995239
2023-01-17T01:58:53.906Z,1.975098
2023-01-17T02:02:19.218Z,1.87439
2023-01-17T02:05:44.539Z,1.844177
2023-01-17T02:09:09.848Z,1.803894
2023-01-17T02:12:35.140Z,1.813965
2023-01-17T02:16:00.434Z,1.914673
2023-01-17T02:19:25.719Z,1.864319
2023-01-17T02:22:51.018Z,1.813965
2023-01-17T02:26:16.297Z,1.834106
2023-01-17T02:29:41.623Z,1.88446
2023-01-17T02:33:06.894Z,1.844177
2023-01-17T02:36:32.207Z,1.88446
2023-01-17T02:39:57.511Z,1.904602
2023-01-17T02:43:22.759Z,1.834106
2023-01-17T02:46:48.127Z,1.88446
2023-01-17T02:50:13.322Z,1.87439
2023-01-17T02:53:38.572Z,1.793823
2023-01-17T02:57:03.880Z,1.87439
2023-01-17T03:00:29.177Z,1.88446
2023-01-17T03:03:54.433Z,1.864319
2023-01-17T03:07:19.744Z,1.87439
2023-01-17T03:10:44.996Z,1.813965
2023-01-17T03:14:10.260Z,1.88446
2023-01-17T03:17:35.565Z,1.813965
2023-01-17T03:21:00.877Z,1.834106
2023-01-17T03:24:26.180Z,1.844177
2023-01-17T03:27:51.423Z,1.914673
2023-01-17T03:31:16.711Z,1.87439
2023-01-17T03:34:41.951Z,1.864319
2023-01-17T03:38:07.289Z,1.904602
2023-01-17T03:41:32.531Z,1.914673
2023-01-17T03:44:57.819Z,1.813965
2023-01-17T03:48:23.088Z,1.834106
2023-01-17T03:51:48.332Z,1.87439
2023-01-17T03:55:13.615Z,1.954956
2023-01-17T03:58:38.835Z,1.934814
2023-01-17T04:02:04.274Z,1.88446
2023-01-17T04:05:29.373Z,1.834106
2023-01-17T04:08:54.651Z,1.834106
2023-01-17T04:12:19.939Z,1.834106
2023-01-17T04:15:45.156Z,1.733398
2023-01-17T04:19:10.393Z,1.793823
2023-01-17T04:22:35.644Z,1.662903
2023-01-17T04:26:00.905Z,1.592407
2023-01-17T04:29:26.425Z,1.602478
2023-01-17T04:32:51.576Z,1.582336
2023-01-17T04:36:16.914Z,1.542053
2023-01-17T04:39:42.642Z,1.511841
2023-01-17T04:43:07.886Z,1.511841
2023-01-17T04:46:33.160Z,1.521912
2023-01-17T04:49:58.411Z,1.592407
2023-01-17T04:53:23.668Z,1.582336
2023-01-17T04:56:48.939Z,1.481628
2023-01-17T05:00:14.190Z,1.451416
2023-01-17T05:03:39.454Z,1.511841
2023-01-17T05:07:04.662Z,1.521912
2023-01-17T05:10:29.970Z,1.552124
2023-01-17T05:13:55.227Z,1.50177
2023-01-17T05:17:20.503Z,1.50177
2023-01-17T05:20:45.875Z,1.582336
2023-01-17T05:24:11.160Z,1.542053
2023-01-17T05:27:36.494Z,1.552124
2023-01-17T05:31:01.941Z,1.471558
2023-01-17T05:34:27.175Z,1.441345
2023-01-17T05:37:52.443Z,1.320496
2023-01-17T05:41:17.719Z,1.421204
2023-01-17T05:44:42.931Z,1.481628
2023-01-17T05:48:08.232Z,1.652832
2023-01-17T05:51:33.502Z,1.864319
2023-01-17T05:54:58.781Z,1.793823
2023-01-17T05:58:23.985Z,1.602478
2023-01-17T06:01:49.226Z,1.63269
2023-01-17T06:05:14.490Z,1.37085
2023-01-17T06:08:39.739Z,1.37085
2023-01-17T06:12:05.029Z,1.411133
2023-01-17T06:15:30.307Z,1.511841
2023-01-17T06:18:55.661Z,1.50177
2023-01-17T06:22:21.175Z,1.542053
2023-01-17T06:25:46.541Z,1.703186
2023-01-17T06:29:11.844Z,1.904602
2023-01-17T06:32:37.088Z,1.773682
2023-01-17T06:36:02.387Z,1.662903
2023-01-17T06:39:27.648Z,1.511841
2023-01-17T06:42:52.892Z,1.330566
2023-01-17T06:46:18.215Z,1.260071
2023-01-17T06:49:43.391Z,1.340637
2023-01-17T06:53:08.646Z,1.37085
2023-01-17T06:56:33.885Z,1.300354
2023-01-17T06:59:59.126Z,1.330566
2023-01-17T07:03:24.448Z,1.300354
2023-01-17T07:06:49.646Z,1.159363
2023-01-17T07:10:14.908Z,1.270142
2023-01-17T07:13:40.189Z,1.300354
2023-01-17T07:17:05.423Z,1.330566
2023-01-17T07:20:30.702Z,1.401062
2023-01-17T07:23:55.938Z,1.451416
2023-01-17T07:27:21.210Z,1.421204
2023-01-17T07:30:46.470Z,1.481628
2023-01-17T07:34:11.724Z,1.542053
2023-01-17T07:37:36.996Z,1.521912
2023-01-17T07:41:02.270Z,1.511841
2023-01-17T07:44:27.517Z,1.552124
2023-01-17T07:47:52.784Z,1.471558
2023-01-17T07:51:18.084Z,1.411133
2023-01-17T07:54:43.319Z,1.300354
2023-01-17T07:58:08.552Z,1.320496
2023-01-17T08:01:33.947Z,1.360779
2023-01-17T08:04:59.076Z,1.451416
2023-01-17T08:08:24.338Z,1.552124
2023-01-17T08:11:49.626Z,1.521912
2023-01-17T08:15:14.945Z,1.481628
2023-01-17T08:18:40.366Z,1.662903
2023-01-17T08:22:05.679Z,1.542053
2023-01-17T08:25:30.996Z,1.662903
2023-01-17T08:28:56.276Z,1.773682
2023-01-17T08:32:21.544Z,1.773682
2023-01-17T08:35:47.508Z,1.652832
2023-01-17T08:39:12.768Z,1.602478
2023-01-17T08:42:38.576Z,1.50177
2023-01-17T08:46:04.007Z,1.290283
2023-01-17T08:49:30.063Z,1.330566
2023-01-17T08:52:55.313Z,1.320496
2023-01-17T08:56:20.571Z,1.179504
2023-01-17T08:59:45.888Z,1.219788
2023-01-17T09:03:11.206Z,1.260071
2023-01-17T09:06:36.431Z,1.270142
2023-01-17T09:10:01.676Z,1.330566
2023-01-17T09:13:26.921Z,1.320496
2023-01-17T09:16:52.233Z,1.411133
2023-01-17T09:20:17.500Z,1.50177
2023-01-17T09:23:42.695Z,1.552124
2023-01-17T09:27:08.001Z,1.481628
2023-01-17T09:30:33.308Z,1.592407
2023-01-17T09:33:58.546Z,1.662903
2023-01-17T09:37:23.895Z,1.703186
2023-01-17T09:40:49.145Z,1.834106
2023-01-17T09:44:14.463Z,1.793823
2023-01-17T09:47:39.795Z,1.773682
2023-01-17T09:51:05.123Z,1.703186
2023-01-17T09:54:30.446Z,1.652832
2023-01-17T09:57:55.719Z,1.592407
2023-01-17T10:01:21.245Z,1.50177
2023-01-17T10:04:46.367Z,1.552124
2023-01-17T10:08:11.638Z,1.582336
2023-01-17T10:11:36.940Z,1.63269
2023-01-17T10:15:02.195Z,1.703186
2023-01-17T10:18:30.331Z,1.662903
2023-01-17T10:21:52.733Z,1.652832
2023-01-17T10:25:18.001Z,1.723328
2023-01-17T10:28:43.373Z,1.834106
2023-01-17T10:32:08.653Z,2.085876
2023-01-17T10:35:34.031Z,2.277222
2023-01-17T10:38:59.352Z,2.236938
2023-01-17T10:42:24.649Z,2.236938
2023-01-17T10:45:49.995Z,2.226868
2023-01-17T10:49:15.225Z,2.37793
2023-01-17T10:52:40.608Z,2.428284
2023-01-17T10:56:05.908Z,2.448425
2023-01-17T10:59:31.162Z,2.357788
2023-01-17T11:02:56.506Z,2.277222
2023-01-17T11:06:23.181Z,2.277222
2023-01-17T11:09:48.339Z,2.196655
2023-01-17T11:13:13.584Z,2.13623
2023-01-17T11:16:38.861Z,2.116089
2023-01-17T11:20:04.179Z,2.025452
2023-01-17T11:23:29.384Z,1.904602
2023-01-17T11:26:54.657Z,1.914673
2023-01-17T11:30:19.918Z,1.914673
2023-01-17T11:33:45.321Z,1.934814
2023-01-17T11:37:10.446Z,1.985168
2023-01-17T11:40:35.657Z,2.055664
2023-01-17T11:44:00.954Z,2.116089
2023-01-17T11:47:26.234Z,2.156372
2023-01-17T11:50:51.525Z,2.196655
2023-01-17T11:54:16.820Z,2.196655
2023-01-17T11:57:42.079Z,2.277222
2023-01-17T12:01:07.382Z,2.428284
2023-01-17T12:04:32.673Z,2.639771
2023-01-17T12:07:57.879Z,2.821045
2023-01-17T12:11:23.172Z,2.790833
2023-01-17T12:14:48.393Z,2.962036
2023-01-17T12:18:13.646Z,2.901611
2023-01-17T12:21:38.888Z,2.810974
2023-01-17T12:25:04.204Z,2.891541
2023-01-17T12:28:29.527Z,3.13324
2023-01-17T12:31:54.776Z,3.324585
2023-01-17T12:35:20.033Z,3.364868
2023-01-17T12:38:45.294Z,3.334656
2023-01-17T12:42:10.808Z,3.284302
2023-01-17T12:45:36.145Z,3.203735
2023-01-17T12:49:01.397Z,3.183594
2023-01-17T12:52:26.647Z,3.324585
2023-01-17T12:55:51.895Z,3.294373
2023-01-17T12:59:17.133Z,3.244019
2023-01-17T13:02:42.411Z,3.173523
2023-01-17T13:06:07.678Z,3.13324
2023-01-17T13:09:32.947Z,2.992249
2023-01-17T13:12:58.198Z,2.921753
2023-01-17T13:16:23.509Z,2.841187
2023-01-17T13:19:48.756Z,2.951965
2023-01-17T13:23:14.029Z,2.992249
2023-01-17T13:26:39.325Z,2.992249
2023-01-17T13:30:04.597Z,3.13324
2023-01-17T13:33:29.880Z,3.143311
2023-01-17T13:36:55.129Z,3.103027
2023-01-17T13:40:20.394Z,3.062744
2023-01-17T13:43:45.637Z,2.851257
2023-01-17T13:47:10.915Z,2.851257
2023-01-17T13:50:36.164Z,2.871399
2023-01-17T13:54:01.465Z,2.821045
2023-01-17T13:57:29.307Z,2.810974
2023-01-17T14:00:52.066Z,2.770691
2023-01-17T14:04:17.228Z,2.821045
2023-01-17T14:07:42.489Z,2.810974
2023-01-17T14:11:09.772Z,2.901611
2023-01-17T14:14:33.017Z,2.921753
2023-01-17T14:17:58.274Z,2.962036
2023-01-17T14:21:23.527Z,2.901611
2023-01-17T14:24:48.758Z,2.851257
2023-01-17T14:28:14.036Z,2.780762
2023-01-17T15:05:46.812Z,1.985168
2023-01-17T15:09:12.051Z,1.87439
2023-01-17T15:12:37.295Z,1.813965
2023-01-17T15:16:02.534Z,1.703186
2023-01-17T15:19:27.776Z,1.602478
2023-01-17T15:22:53.315Z,1.50177
2023-01-17T15:26:18.570Z,1.37085
2023-01-17T15:29:43.882Z,1.401062
2023-01-17T15:33:09.291Z,1.441345
2023-01-17T15:36:34.521Z,1.481628
2023-01-17T15:39:59.790Z,1.542053
2023-01-17T15:43:25.007Z,1.340637
2023-01-17T15:46:50.256Z,1.199646
2023-01-17T15:50:15.500Z,1.290283
2023-01-17T15:53:40.738Z,1.340637
2023-01-17T15:57:06.005Z,1.320496
2023-01-17T16:00:31.221Z,1.37085
2023-01-17T16:03:57.307Z,1.441345
2023-01-17T16:07:22.577Z,1.199646
2023-01-17T16:11:11.847Z,0.99823
2023-01-17T16:14:53.777Z,1.048584
2023-01-17T16:18:02.570Z,0.937805
2023-01-17T16:21:27.962Z,0.937805
2023-01-17T16:24:53.288Z,0.897522
2023-01-17T16:28:18.620Z,0.837097
2023-01-17T16:31:43.997Z,0.74646
2023-01-17T16:35:09.336Z,0.827026
2023-01-17T16:38:34.721Z,0.827026
2023-01-17T16:42:00.014Z,0.756531
2023-01-17T16:45:25.315Z,0.675964
2023-01-17T16:48:50.703Z,0.686035
2023-01-17T16:52:16.011Z,0.595398
2023-01-17T16:55:41.404Z,0.61554
2023-01-17T16:59:06.766Z,0.49469
2023-01-17T17:02:32.113Z,0.081787
2023-01-17T17:05:57.425Z,-0.220337
2023-01-17T17:09:22.745Z,-0.139771
2023-01-17T17:12:48.012Z,-0.049133
2023-01-17T17:16:13.567Z,-0.069275
2023-01-17T17:19:38.897Z,-0.028992
2023-01-17T17:23:04.233Z,0.101929
2023-01-17T17:26:29.559Z,-0.049133
2023-01-17T17:29:54.913Z,-0.341187
2023-01-17T17:33:20.193Z,-0.472107
2023-01-17T17:36:45.540Z,-0.603027
2023-01-17T17:40:10.899Z,-0.572815
2023-01-17T17:43:36.216Z,-0.582886
2023-01-17T17:47:01.568Z,-0.703735
2023-01-17T17:50:26.856Z,-0.582886
2023-01-17T17:53:52.088Z,-0.472107
2023-01-17T17:57:17.359Z,-0.431824
2023-01-17T18:00:42.627Z,-0.230408
2023-01-17T18:04:07.868Z,-0.190125
2023-01-17T18:07:33.269Z,-0.139771
2023-01-17T18:10:58.520Z,-0.159912
2023-01-17T18:14:23.832Z,-0.290833
2023-01-17T18:17:49.057Z,-0.290833
2023-01-17T18:21:14.509Z,-0.371399
2023-01-17T18:24:39.803Z,-0.441895
2023-01-17T18:28:05.148Z,-0.472107
2023-01-17T18:31:30.532Z,-0.472107
2023-01-17T18:34:55.706Z,-0.51239
2023-01-17T18:38:21.010Z,-0.492249
2023-01-17T18:41:46.319Z,-0.462036
2023-01-17T18:45:11.564Z,-0.421753
2023-01-17T18:48:36.879Z,-0.441895
2023-01-17T18:52:02.154Z,-0.472107
2023-01-17T18:55:27.503Z,-0.421753
2023-01-17T18:58:52.845Z,-0.290833
2023-01-17T19:02:18.119Z,-0.250549
2023-01-17T19:05:43.408Z,-0.109558
2023-01-17T19:09:08.654Z,-0.079346
2023-01-17T19:12:33.978Z,-0.180054
2023-01-17T19:15:59.279Z,-0.069275
2023-01-17T19:19:24.526Z,0.112
2023-01-17T19:22:49.838Z,0.283203
2023-01-17T19:26:15.088Z,0.383911
2023-01-17T19:29:40.336Z,0.414124
2023-01-17T19:33:05.630Z,0.444336
2023-01-17T19:36:30.880Z,0.534973
2023-01-17T19:39:56.170Z,0.464478
2023-01-17T19:43:21.425Z,0.36377
2023-01-17T19:46:46.659Z,0.393982
2023-01-17T19:50:11.928Z,0.393982
2023-01-17T19:53:37.217Z,0.333557
2023-01-17T19:57:02.576Z,0.041504
2023-01-17T20:00:30.323Z,-0.079346
2023-01-17T20:03:53.005Z,-0.139771
2023-01-17T20:07:18.373Z,-0.159912
2023-01-17T20:10:43.620Z,-0.190125
2023-01-17T20:14:08.930Z,-0.190125
2023-01-17T20:17:34.676Z,-0.190125
2023-01-17T20:20:59.425Z,-0.149841
2023-01-17T20:24:24.675Z,-0.149841
2023-01-17T20:27:49.963Z,-0.139771
2023-01-17T20:31:15.256Z,-0.109558
2023-01-17T20:34:40.469Z,-0.049133
2023-01-17T20:38:05.650Z,-0.049133
2023-01-17T20:41:30.940Z,-0.00885
2023-01-17T20:44:56.192Z,0.021362
2023-01-17T20:48:21.464Z,0.041504
2023-01-17T20:51:46.717Z,0.132141
2023-01-17T20:55:11.932Z,0.232849
2023-01-17T20:58:37.178Z,0.293274
2023-01-17T21:02:02.629Z,0.353699
2023-01-17T21:05:27.739Z,0.474548
2023-01-17T21:08:52.954Z,0.605469
2023-01-17T21:12:18.191Z,0.675964
2023-01-17T21:15:43.448Z,0.756531
2023-01-17T21:19:08.675Z,0.756531
2023-01-17T21:22:33.941Z,0.61554
2023-01-17T21:25:59.181Z,0.575256
2023-01-17T21:29:24.462Z,0.49469
2023-01-17T21:32:49.735Z,0.514832
2023-01-17T21:36:14.982Z,0.545044
2023-01-17T21:39:40.249Z,0.645752
2023-01-17T21:43:05.499Z,0.514832
2023-01-17T21:46:30.764Z,0.514832
2023-01-17T21:49:56.042Z,0.534973
2023-01-17T21:53:21.350Z,0.49469
2023-01-17T21:56:46.637Z,0.383911
2023-01-17T22:00:11.838Z,0.36377
2023-01-17T22:03:37.095Z,0.444336
2023-01-17T22:07:02.351Z,0.424194
2023-01-17T22:10:27.615Z,0.504761
2023-01-17T22:13:52.897Z,0.514832
2023-01-17T22:17:18.110Z,0.575256
2023-01-17T22:20:43.391Z,0.696106
2023-01-17T22:24:08.618Z,0.696106
2023-01-17T22:27:33.857Z,0.696106
2023-01-17T22:30:59.209Z,0.595398
2023-01-17T22:34:24.403Z,0.595398
2023-01-17T22:37:49.652Z,0.504761
2023-01-17T22:41:14.899Z,0.414124
2023-01-17T22:44:40.156Z,0.313416
2023-01-17T22:48:05.533Z,0.112
2023-01-17T22:51:30.757Z,0.112
2023-01-17T22:54:56.007Z,0.021362
2023-01-17T22:58:21.244Z,0.041504
2023-01-17T23:01:46.460Z,0.112
2023-01-17T23:05:11.749Z,0.112
2023-01-17T23:08:37.817Z,0.172424
2023-01-17T23:12:03.035Z,0.232849
2023-01-17T23:15:28.281Z,0.212708
2023-01-17T23:18:53.513Z,0.182495
2023-01-17T23:22:18.796Z,0.132141
2023-01-17T23:25:44.005Z,0.132141
2023-01-17T23:29:09.280Z,0.232849
2023-01-17T23:32:34.565Z,0.152283
2023-01-17T23:35:59.837Z,0.212708
2023-01-17T23:39:26.090Z,0.353699
2023-01-17T23:42:50.318Z,0.414124
2023-01-17T23:46:15.623Z,0.474548
2023-01-17T23:49:40.806Z,0.49469
2023-01-17T23:53:06.042Z,0.575256
2023-01-17T23:56:31.311Z,0.565186
2023-01-17T23:59:56.539Z,0.424194
